Terminal Aerodrome Forecast
Issued by NWS

Home | Current Version | Previous Version | Text Only | Print | Product List | Glossary On
Versions: 1 2 3 4 5 6 7 8 9 10 11 12 13 14 15 16 17 18
000
FTAK31 PAFA 230543
TAFAOT
TAF
PAOT 230543Z 2306/2406 VRB04KT P6SM SCT050
     FM231200 12010KT P6SM SCT020
     FM231600 12012KT P6SM VCSH SCT025 BKN060 OVC100
     FM240000 12025KT 1SM -SN BLSN BR BKN010 OVC020=

USA.gov is the U.S. government's official web portal to all federal, state and local government web resources and services.